Time;durP1;ratioP1;P1;durP2;ratioP2;P2;SDS_P1;SDS_P2;PMS_P1;PMS_P2;Temp;Humidity;BMP_temperature;BMP_pressure;BME280_temperature;BME280_humidity;BME280_pressure;Samples;Min_cycle;Max_cycle;Signal;HPM_P1;HPM_P2
2021/11/19 00:02:52;;;;;;;3.24;2.94;;;;;;;19.20;53.52;101934.75;;;;-57
2021/11/19 00:05:52;;;;;;;3.31;3.01;;;;;;;19.18;53.60;101926.58;;;;-57
2021/11/19 00:08:53;;;;;;;3.21;2.94;;;;;;;19.16;53.54;101924.56;;;;-57
2021/11/19 00:11:53;;;;;;;3.25;2.95;;;;;;;19.15;53.56;101925.73;;;;-57
2021/11/19 00:14:52;;;;;;;3.84;3.17;;;;;;;19.15;53.56;101929.30;;;;-57
2021/11/19 00:17:52;;;;;;;3.13;2.83;;;;;;;19.13;53.53;101930.37;;;;-52
2021/11/19 00:20:52;;;;;;;3.38;2.98;;;;;;;19.11;53.57;101931.36;;;;-52
2021/11/19 00:23:53;;;;;;;3.69;2.92;;;;;;;19.10;53.59;101933.86;;;;-52
2021/11/19 00:26:52;;;;;;;3.27;2.97;;;;;;;19.09;53.56;101933.90;;;;-52
2021/11/19 00:29:53;;;;;;;3.05;2.75;;;;;;;19.07;53.57;101934.52;;;;-52
2021/11/19 00:32:53;;;;;;;3.11;2.81;;;;;;;19.06;53.62;101934.63;;;;-57
2021/11/19 00:35:52;;;;;;;3.22;2.92;;;;;;;19.04;53.58;101940.51;;;;-56
2021/11/19 00:38:54;;;;;;;3.12;2.82;;;;;;;19.04;53.60;101940.25;;;;-57
2021/11/19 00:41:52;;;;;;;3.27;2.97;;;;;;;19.02;53.62;101937.52;;;;-52
2021/11/19 00:44:52;;;;;;;3.95;2.97;;;;;;;19.00;53.62;101929.66;;;;-52
2021/11/19 00:47:53;;;;;;;3.41;3.03;;;;;;;19.00;53.62;101926.88;;;;-52
2021/11/19 00:50:52;;;;;;;3.25;2.95;;;;;;;18.97;53.58;101928.44;;;;-52
2021/11/19 00:53:52;;;;;;;3.11;2.67;;;;;;;18.96;53.65;101930.42;;;;-52
2021/11/19 00:56:53;;;;;;;4.87;3.21;;;;;;;18.96;53.63;101932.13;;;;-52
2021/11/19 00:59:52;;;;;;;3.06;2.71;;;;;;;18.94;53.63;101927.75;;;;-52
2021/11/19 01:02:52;;;;;;;3.00;2.70;;;;;;;18.93;53.60;101931.05;;;;-52
2021/11/19 01:05:53;;;;;;;3.09;2.79;;;;;;;18.92;53.65;101929.22;;;;-52
2021/11/19 01:08:52;;;;;;;3.25;2.95;;;;;;;18.91;53.67;101935.47;;;;-52
2021/11/19 01:11:53;;;;;;;3.15;2.85;;;;;;;18.91;53.67;101938.72;;;;-57
2021/11/19 01:14:52;;;;;;;3.33;2.98;;;;;;;18.90;53.71;101945.32;;;;-57
2021/11/19 01:17:52;;;;;;;3.78;2.98;;;;;;;18.88;53.69;101946.69;;;;-57
2021/11/19 01:20:52;;;;;;;3.43;2.84;;;;;;;18.87;53.71;101949.80;;;;-52
2021/11/19 01:23:52;;;;;;;3.15;2.85;;;;;;;18.86;53.71;101951.45;;;;-52
2021/11/19 01:26:53;;;;;;;3.19;2.91;;;;;;;18.85;53.73;101947.94;;;;-57
2021/11/19 01:29:53;;;;;;;3.09;2.79;;;;;;;18.84;53.75;101948.62;;;;-57
2021/11/19 01:32:52;;;;;;;3.21;2.91;;;;;;;18.83;53.73;101951.77;;;;-57
2021/11/19 01:35:52;;;;;;;3.21;2.91;;;;;;;18.81;53.70;101950.00;;;;-57
2021/11/19 01:38:52;;;;;;;3.20;2.90;;;;;;;18.80;53.75;101950.06;;;;-56
2021/11/19 01:41:52;;;;;;;3.20;2.90;;;;;;;18.79;53.72;101955.70;;;;-56
2021/11/19 01:44:52;;;;;;;3.34;2.81;;;;;;;18.78;53.71;101959.39;;;;-55
2021/11/19 01:47:53;;;;;;;3.20;2.90;;;;;;;18.77;53.77;101957.71;;;;-55
2021/11/19 01:50:52;;;;;;;3.19;2.75;;;;;;;18.75;53.72;101952.94;;;;-54
2021/11/19 01:53:53;;;;;;;3.23;2.93;;;;;;;18.74;53.80;101949.71;;;;-54
2021/11/19 01:56:52;;;;;;;3.24;2.84;;;;;;;18.73;53.69;101949.14;;;;-52
2021/11/19 01:59:52;;;;;;;3.16;2.86;;;;;;;18.73;53.82;101947.42;;;;-52
2021/11/19 02:02:52;;;;;;;3.15;2.85;;;;;;;18.71;53.82;101944.59;;;;-52
2021/11/19 02:05:52;;;;;;;3.39;2.80;;;;;;;18.70;53.78;101941.81;;;;-55
2021/11/19 02:08:52;;;;;;;3.31;3.01;;;;;;;18.69;53.79;101937.88;;;;-54
2021/11/19 02:11:52;;;;;;;3.25;2.95;;;;;;;18.68;53.81;101939.00;;;;-54
2021/11/19 02:14:52;;;;;;;3.13;2.83;;;;;;;18.67;53.79;101941.38;;;;-57
2021/11/19 02:17:53;;;;;;;4.23;3.05;;;;;;;18.67;53.78;101937.97;;;;-57
2021/11/19 02:20:52;;;;;;;4.43;3.04;;;;;;;18.65;53.84;101935.53;;;;-55
2021/11/19 02:23:52;;;;;;;3.91;3.18;;;;;;;18.63;53.81;101937.67;;;;-54
2021/11/19 02:26:53;;;;;;;3.67;2.99;;;;;;;18.63;53.76;101938.15;;;;-54
2021/11/19 02:29:52;;;;;;;3.21;2.91;;;;;;;18.62;53.82;101939.34;;;;-54
2021/11/19 02:32:52;;;;;;;3.16;2.86;;;;;;;18.61;53.76;101940.61;;;;-54
2021/11/19 02:35:52;;;;;;;3.08;2.78;;;;;;;18.61;53.79;101936.21;;;;-57
2021/11/19 02:38:52;;;;;;;3.05;2.77;;;;;;;18.60;53.84;101931.17;;;;-57
2021/11/19 02:41:52;;;;;;;3.22;2.92;;;;;;;18.59;53.81;101925.59;;;;-54
2021/11/19 02:44:52;;;;;;;3.26;2.96;;;;;;;18.57;53.78;101928.81;;;;-55
2021/11/19 02:47:52;;;;;;;3.21;2.91;;;;;;;18.57;53.79;101929.47;;;;-54
2021/11/19 02:50:52;;;;;;;2.97;2.68;;;;;;;18.56;53.82;101925.59;;;;-53
2021/11/19 02:53:52;;;;;;;3.10;2.80;;;;;;;18.56;53.85;101928.99;;;;-53
2021/11/19 02:56:52;;;;;;;3.20;2.90;;;;;;;18.55;53.83;101928.78;;;;-52
2021/11/19 02:59:52;;;;;;;3.55;2.73;;;;;;;18.55;53.84;101938.61;;;;-53
2021/11/19 03:02:52;;;;;;;3.15;2.79;;;;;;;18.53;53.87;101936.71;;;;-51
2021/11/19 03:05:52;;;;;;;3.35;3.05;;;;;;;18.52;53.86;101934.63;;;;-52
2021/11/19 03:08:52;;;;;;;3.14;2.84;;;;;;;18.52;53.86;101933.82;;;;-53
2021/11/19 03:11:52;;;;;;;2.97;2.69;;;;;;;18.51;53.80;101938.63;;;;-51
2021/11/19 03:14:53;;;;;;;2.93;2.63;;;;;;;18.50;53.95;101944.95;;;;-51
2021/11/19 03:17:52;;;;;;;3.19;2.89;;;;;;;18.49;53.79;101948.02;;;;-52
2021/11/19 03:20:52;;;;;;;3.23;2.92;;;;;;;18.48;53.86;101947.48;;;;-51
2021/11/19 03:23:53;;;;;;;3.15;2.85;;;;;;;18.47;53.85;101948.69;;;;-51
2021/11/19 03:26:52;;;;;;;3.19;2.89;;;;;;;18.47;53.89;101944.62;;;;-57
2021/11/19 03:29:52;;;;;;;2.99;2.69;;;;;;;18.45;53.84;101944.23;;;;-56
2021/11/19 03:32:52;;;;;;;2.99;2.68;;;;;;;18.44;53.92;101943.86;;;;-57
2021/11/19 03:35:52;;;;;;;3.12;2.83;;;;;;;18.44;53.89;101950.52;;;;-52
2021/11/19 03:38:52;;;;;;;2.91;2.71;;;;;;;18.43;53.90;101950.97;;;;-52
2021/11/19 03:41:52;;;;;;;3.15;2.85;;;;;;;18.43;53.87;101959.63;;;;-52
2021/11/19 03:44:53;;;;;;;2.99;2.71;;;;;;;18.42;53.88;101959.69;;;;-52
2021/11/19 03:47:53;;;;;;;3.09;2.79;;;;;;;18.41;53.91;101960.96;;;;-52
2021/11/19 03:50:52;;;;;;;3.25;2.67;;;;;;;18.40;53.92;101957.75;;;;-52
2021/11/19 03:53:52;;;;;;;2.98;2.70;;;;;;;18.40;53.89;101954.66;;;;-52
2021/11/19 03:56:52;;;;;;;3.06;2.72;;;;;;;18.40;53.97;101952.95;;;;-52
2021/11/19 03:59:52;;;;;;;3.38;2.70;;;;;;;18.38;53.88;101951.52;;;;-52
2021/11/19 04:02:52;;;;;;;3.13;2.83;;;;;;;18.38;53.96;101951.52;;;;-55
2021/11/19 04:05:52;;;;;;;3.07;2.74;;;;;;;18.37;53.91;101951.00;;;;-54
2021/11/19 04:08:53;;;;;;;2.87;2.59;;;;;;;18.37;53.89;101942.48;;;;-54
2021/11/19 04:11:52;;;;;;;3.07;2.77;;;;;;;18.36;53.99;101946.48;;;;-54
2021/11/19 04:14:52;;;;;;;3.27;2.96;;;;;;;18.35;53.96;101944.04;;;;-55
2021/11/19 04:17:52;;;;;;;3.84;2.72;;;;;;;18.35;53.94;101942.25;;;;-52
2021/11/19 04:20:52;;;;;;;3.07;2.77;;;;;;;18.33;53.90;101940.06;;;;-52
2021/11/19 04:23:53;;;;;;;2.75;2.49;;;;;;;18.34;53.95;101938.78;;;;-52
2021/11/19 04:26:52;;;;;;;3.00;2.70;;;;;;;18.32;54.02;101940.18;;;;-52
2021/11/19 04:29:52;;;;;;;2.95;2.66;;;;;;;18.31;53.98;101943.17;;;;-52
2021/11/19 04:32:52;;;;;;;2.97;2.66;;;;;;;18.31;53.93;101942.11;;;;-52
2021/11/19 04:35:53;;;;;;;3.22;2.75;;;;;;;18.31;53.93;101942.42;;;;-52
2021/11/19 04:38:52;;;;;;;3.19;2.87;;;;;;;18.31;53.93;101939.66;;;;-57
2021/11/19 04:41:52;;;;;;;2.75;2.55;;;;;;;18.29;53.99;101934.82;;;;-57
2021/11/19 04:44:52;;;;;;;2.99;2.73;;;;;;;18.29;53.95;101938.55;;;;-57
2021/11/19 04:47:52;;;;;;;2.91;2.60;;;;;;;18.28;53.94;101936.75;;;;-56
2021/11/19 04:50:52;;;;;;;3.63;2.84;;;;;;;18.28;53.94;101935.09;;;;-52
2021/11/19 04:53:52;;;;;;;2.97;2.67;;;;;;;18.27;54.01;101933.44;;;;-52
2021/11/19 04:56:52;;;;;;;3.09;2.80;;;;;;;18.26;54.00;101927.87;;;;-52
2021/11/19 04:59:52;;;;;;;3.17;2.87;;;;;;;18.25;54.06;101927.78;;;;-52
2021/11/19 05:02:52;;;;;;;3.10;2.80;;;;;;;18.25;53.98;101927.95;;;;-52
2021/11/19 05:05:52;;;;;;;2.92;2.72;;;;;;;18.24;54.08;101927.19;;;;-52
2021/11/19 05:08:52;;;;;;;2.83;2.53;;;;;;;18.23;54.01;101926.66;;;;-52
2021/11/19 05:11:52;;;;;;;2.95;2.62;;;;;;;18.24;53.98;101927.72;;;;-55
2021/11/19 05:14:52;;;;;;;2.59;2.39;;;;;;;18.23;54.04;101940.86;;;;-54
2021/11/19 05:17:52;;;;;;;2.70;2.50;;;;;;;18.23;54.13;101939.56;;;;-54
2021/11/19 05:20:52;;;;;;;2.78;2.54;;;;;;;18.22;54.10;101942.50;;;;-54
2021/11/19 05:23:52;;;;;;;2.70;2.50;;;;;;;18.22;54.15;101938.89;;;;-54
2021/11/19 05:26:52;;;;;;;2.83;2.63;;;;;;;18.21;54.10;101934.28;;;;-54
2021/11/19 05:29:52;;;;;;;2.71;2.51;;;;;;;18.20;54.09;101931.03;;;;-54
2021/11/19 05:32:52;;;;;;;2.87;2.66;;;;;;;18.20;54.13;101928.02;;;;-54
2021/11/19 05:35:52;;;;;;;2.85;2.65;;;;;;;18.20;54.09;101933.05;;;;-55
2021/11/19 05:38:52;;;;;;;2.91;2.60;;;;;;;18.19;54.15;101933.97;;;;-55
2021/11/19 05:41:52;;;;;;;2.95;2.72;;;;;;;18.19;54.06;101936.08;;;;-52
2021/11/19 05:44:52;;;;;;;2.77;2.57;;;;;;;18.19;54.11;101941.67;;;;-51
2021/11/19 05:47:52;;;;;;;2.99;2.69;;;;;;;18.19;54.13;101940.30;;;;-51
2021/11/19 05:50:52;;;;;;;2.95;2.69;;;;;;;18.18;54.18;101937.86;;;;-52
2021/11/19 05:53:52;;;;;;;2.79;2.49;;;;;;;18.18;54.13;101943.21;;;;-51
2021/11/19 05:56:53;;;;;;;2.76;2.56;;;;;;;18.18;54.12;101938.66;;;;-52
2021/11/19 05:59:52;;;;;;;2.76;2.53;;;;;;;18.18;54.11;101947.11;;;;-52
2021/11/19 06:02:52;;;;;;;3.11;2.81;;;;;;;18.18;54.11;101942.44;;;;-54
2021/11/19 06:05:52;;;;;;;2.70;2.50;;;;;;;18.19;54.15;101946.88;;;;-55
2021/11/19 06:08:52;;;;;;;2.84;2.57;;;;;;;18.18;54.19;101950.59;;;;-51
2021/11/19 06:11:52;;;;;;;2.99;2.69;;;;;;;18.19;54.15;101951.34;;;;-51
2021/11/19 06:14:52;;;;;;;2.65;2.45;;;;;;;18.19;54.18;101954.59;;;;-51
2021/11/19 06:17:52;;;;;;;2.70;2.50;;;;;;;18.20;54.18;101959.50;;;;-51
2021/11/19 06:20:52;;;;;;;2.85;2.55;;;;;;;18.21;54.17;101962.11;;;;-52
2021/11/19 06:23:52;;;;;;;3.19;2.67;;;;;;;18.21;54.17;101967.30;;;;-51
2021/11/19 06:26:52;;;;;;;10.07;6.24;;;;;;;18.07;52.28;101972.28;;;;-51
2021/11/19 06:29:53;;;;;;;10.35;7.27;;;;;;;17.87;50.97;101977.12;;;;-57
2021/11/19 06:32:52;;;;;;;12.83;7.90;;;;;;;17.81;51.16;101972.09;;;;-49
2021/11/19 06:35:52;;;;;;;9.64;6.99;;;;;;;17.89;52.13;101973.22;;;;-56
2021/11/19 06:38:52;;;;;;;8.91;6.10;;;;;;;17.96;52.59;101977.28;;;;-47
2021/11/19 06:41:52;;;;;;;8.54;5.53;;;;;;;18.00;52.65;101966.80;;;;-51
2021/11/19 06:44:52;;;;;;;9.31;5.37;;;;;;;18.01;52.81;101973.84;;;;-54
2021/11/19 06:47:52;;;;;;;5.84;4.82;;;;;;;18.04;52.86;101971.91;;;;-54
2021/11/19 06:50:52;;;;;;;6.85;4.96;;;;;;;18.06;53.00;101977.32;;;;-54
2021/11/19 06:53:54;;;;;;;5.45;4.63;;;;;;;18.07;52.99;101979.62;;;;-56
2021/11/19 06:56:52;;;;;;;6.63;4.75;;;;;;;18.07;53.03;101977.84;;;;-57
2021/11/19 06:59:52;;;;;;;6.12;4.41;;;;;;;18.08;53.08;101979.77;;;;-56
2021/11/19 07:02:52;;;;;;;6.59;4.47;;;;;;;18.08;53.20;101984.88;;;;-56
2021/11/19 07:05:52;;;;;;;5.05;4.21;;;;;;;18.08;53.23;101981.54;;;;-57
2021/11/19 07:08:52;;;;;;;5.86;4.35;;;;;;;18.08;53.24;101978.63;;;;-50
2021/11/19 07:11:52;;;;;;;4.83;4.09;;;;;;;18.09;53.36;101984.48;;;;-54
2021/11/19 07:14:52;;;;;;;5.20;3.89;;;;;;;18.08;53.34;101990.70;;;;-49
2021/11/19 07:17:52;;;;;;;5.01;4.11;;;;;;;18.09;53.32;102001.92;;;;-54
2021/11/19 07:20:52;;;;;;;5.35;4.11;;;;;;;18.09;53.38;102000.64;;;;-57
2021/11/19 07:23:52;;;;;;;4.81;4.05;;;;;;;18.08;53.42;101996.70;;;;-57
2021/11/19 07:26:52;;;;;;;5.63;3.89;;;;;;;18.08;53.45;102001.52;;;;-50
2021/11/19 07:29:52;;;;;;;4.62;3.82;;;;;;;18.08;53.46;102002.48;;;;-56
2021/11/19 07:32:52;;;;;;;4.65;3.87;;;;;;;18.09;53.51;102005.48;;;;-49
2021/11/19 07:35:52;;;;;;;4.59;3.56;;;;;;;18.07;53.51;102004.73;;;;-49
2021/11/19 07:38:53;;;;;;;4.39;3.73;;;;;;;18.07;53.54;102000.56;;;;-54
2021/11/19 07:41:52;;;;;;;5.39;3.81;;;;;;;18.07;53.54;102002.46;;;;-54
2021/11/19 07:44:52;;;;;;;3.87;3.47;;;;;;;18.06;53.59;102008.16;;;;-50
2021/11/19 07:47:52;;;;;;;4.01;3.61;;;;;;;18.07;53.60;102006.48;;;;-50
2021/11/19 07:50:54;;;;;;;4.21;3.50;;;;;;;18.07;53.63;102015.81;;;;-54
2021/11/19 07:53:52;;;;;;;4.34;3.46;;;;;;;18.08;53.64;102013.51;;;;-49
2021/11/19 07:56:52;;;;;;;4.81;3.63;;;;;;;18.07;53.67;102011.58;;;;-49
2021/11/19 07:59:52;;;;;;;4.52;3.74;;;;;;;18.06;53.67;102015.23;;;;-57
2021/11/19 08:02:52;;;;;;;3.73;3.33;;;;;;;18.06;53.70;102018.95;;;;-49
2021/11/19 08:05:52;;;;;;;4.05;3.53;;;;;;;18.05;53.69;102017.27;;;;-54
2021/11/19 08:08:52;;;;;;;3.97;3.46;;;;;;;18.05;53.68;102021.73;;;;-54
2021/11/19 08:11:52;;;;;;;5.01;3.56;;;;;;;18.05;53.72;102017.27;;;;-54
2021/11/19 08:14:52;;;;;;;3.96;3.47;;;;;;;18.05;53.79;102018.97;;;;-56
2021/11/19 08:17:53;;;;;;;3.76;3.35;;;;;;;18.04;53.75;102023.34;;;;-50
2021/11/19 08:20:54;;;;;;;4.55;3.50;;;;;;;18.04;53.80;102032.42;;;;-56
2021/11/19 08:23:52;;;;;;;3.68;3.33;;;;;;;18.04;53.78;102040.78;;;;-50
2021/11/19 08:26:52;;;;;;;4.09;3.53;;;;;;;18.04;53.78;102043.45;;;;-54
2021/11/19 08:29:52;;;;;;;3.56;3.23;;;;;;;18.03;53.80;102037.56;;;;-50
2021/11/19 08:32:52;;;;;;;3.75;3.26;;;;;;;18.03;53.83;102039.30;;;;-50
2021/11/19 08:35:52;;;;;;;4.85;3.11;;;;;;;18.04;53.84;102032.41;;;;-49
2021/11/19 08:38:52;;;;;;;3.73;3.23;;;;;;;18.03;53.82;102032.84;;;;-49
2021/11/19 08:41:52;;;;;;;4.12;3.45;;;;;;;18.02;53.74;102024.06;;;;-54
2021/11/19 08:44:52;;;;;;;3.69;3.21;;;;;;;18.01;53.86;102023.48;;;;-54
2021/11/19 08:47:52;;;;;;;3.39;3.09;;;;;;;18.01;53.88;102021.86;;;;-49
2021/11/19 08:50:52;;;;;;;4.08;3.00;;;;;;;18.01;53.86;102013.78;;;;-49
2021/11/19 08:53:52;;;;;;;3.35;3.03;;;;;;;18.01;53.88;102017.84;;;;-49
2021/11/19 08:56:52;;;;;;;3.31;3.00;;;;;;;18.01;53.89;102017.77;;;;-49
2021/11/19 08:59:52;;;;;;;3.44;3.14;;;;;;;18.01;53.84;102015.25;;;;-50
2021/11/19 09:02:52;;;;;;;3.55;3.16;;;;;;;18.00;53.89;102007.53;;;;-49
2021/11/19 09:05:52;;;;;;;3.35;3.05;;;;;;;17.99;53.87;102014.00;;;;-49
2021/11/19 09:08:52;;;;;;;3.79;3.12;;;;;;;17.99;53.84;102015.67;;;;-50
2021/11/19 09:11:52;;;;;;;4.78;3.07;;;;;;;18.00;53.89;102022.36;;;;-50
2021/11/19 09:14:53;;;;;;;5.67;3.19;;;;;;;18.02;53.96;102030.73;;;;-52
2021/11/19 09:17:52;;;;;;;4.55;3.06;;;;;;;18.04;54.00;102036.30;;;;-46
2021/11/19 09:20:52;;;;;;;3.57;3.13;;;;;;;18.07;54.35;102034.47;;;;-48
2021/11/19 09:23:52;;;;;;;6.31;2.89;;;;;;;18.12;54.49;102031.75;;;;-57
2021/11/19 09:26:52;;;;;;;4.53;3.01;;;;;;;18.15;54.25;102030.88;;;;-57
2021/11/19 09:29:52;;;;;;;4.43;2.76;;;;;;;18.20;54.21;102032.81;;;;-59
2021/11/19 09:32:52;;;;;;;4.45;2.93;;;;;;;18.25;54.38;102033.13;;;;-51
2021/11/19 09:35:52;;;;;;;4.71;3.07;;;;;;;18.31;54.73;102033.98;;;;-51
2021/11/19 09:38:52;;;;;;;4.10;2.73;;;;;;;18.37;55.03;102037.05;;;;-49
2021/11/19 09:41:52;;;;;;;3.69;2.87;;;;;;;18.43;54.97;102041.28;;;;-55
2021/11/19 09:44:55;;;;;;;3.95;2.91;;;;;;;18.50;55.17;102044.16;;;;-55
2021/11/19 09:47:52;;;;;;;3.15;2.81;;;;;;;18.55;54.94;102044.88;;;;-57
2021/11/19 09:52:52;;;;;;;3.03;2.73;;;;;;;18.63;54.98;102040.47;;;;-56
2021/11/19 10:02:18;;;;;;;3.41;2.60;;;;;;;18.77;54.94;102036.83;;;;-61
2021/11/19 10:06:18;;;;;;;3.23;2.69;;;;;;;18.84;54.79;102029.45;;;;-53
2021/11/19 10:09:18;;;;;;;2.67;2.44;;;;;;;18.88;54.85;102027.64;;;;-53
2021/11/19 10:12:18;;;;;;;3.13;2.61;;;;;;;18.93;55.29;102031.47;;;;-52
2021/11/19 10:15:19;;;;;;;3.66;2.57;;;;;;;18.98;55.03;102030.00;;;;-49
2021/11/19 10:18:18;;;;;;;3.37;2.50;;;;;;;19.02;55.09;102033.30;;;;-49
2021/11/19 10:21:18;;;;;;;3.76;2.47;;;;;;;19.05;54.93;102031.89;;;;-49
2021/11/19 10:24:18;;;;;;;3.17;2.46;;;;;;;19.10;54.97;102023.34;;;;-49
2021/11/19 10:27:18;;;;;;;4.13;2.56;;;;;;;19.15;54.87;102022.75;;;;-56
2021/11/19 10:30:18;;;;;;;3.38;2.62;;;;;;;19.19;54.75;102022.48;;;;-57
2021/11/19 10:33:18;;;;;;;3.49;2.53;;;;;;;19.23;54.71;102018.95;;;;-48
2021/11/19 10:36:18;;;;;;;2.66;2.35;;;;;;;19.27;54.74;102012.92;;;;-58
2021/11/19 10:39:18;;;;;;;3.73;2.53;;;;;;;19.32;54.70;102006.19;;;;-53
2021/11/19 10:42:18;;;;;;;2.73;2.27;;;;;;;19.37;54.85;102003.16;;;;-56
2021/11/19 10:46:18;;;;;;;2.91;2.40;;;;;;;19.41;54.53;101996.53;;;;-57
2021/11/19 10:50:18;;;;;;;3.73;2.53;;;;;;;19.41;53.70;101995.56;;;;-54
2021/11/19 10:54:18;;;;;;;2.89;2.47;;;;;;;19.41;53.56;101994.91;;;;-57
2021/11/19 10:59:19;;;;;;;3.56;2.41;;;;;;;19.42;53.51;101992.81;;;;-57
2021/11/19 11:02:18;;;;;;;3.28;2.34;;;;;;;19.44;54.09;101991.20;;;;-52
2021/11/19 11:05:18;;;;;;;4.99;2.46;;;;;;;19.48;54.30;101984.22;;;;-56
2021/11/19 11:08:18;;;;;;;2.42;2.22;;;;;;;19.51;54.42;101985.22;;;;-52
2021/11/19 11:11:18;;;;;;;3.37;2.41;;;;;;;19.55;54.41;101984.30;;;;-56
2021/11/19 11:14:18;;;;;;;4.24;2.25;;;;;;;19.58;54.39;101987.38;;;;-56
2021/11/19 11:17:18;;;;;;;3.03;2.40;;;;;;;19.59;54.33;101990.96;;;;-47
2021/11/19 11:20:18;;;;;;;5.67;2.65;;;;;;;19.59;53.81;101990.19;;;;-51
2021/11/19 11:23:18;;;;;;;20.91;2.79;;;;;;;19.61;53.87;101992.20;;;;-54
2021/11/19 11:26:18;;;;;;;2.53;2.33;;;;;;;19.66;54.13;101989.64;;;;-50
2021/11/19 11:29:18;;;;;;;6.87;2.60;;;;;;;19.69;54.25;101987.61;;;;-48
2021/11/19 11:32:18;;;;;;;3.92;2.40;;;;;;;19.71;54.18;101979.00;;;;-54
2021/11/19 11:36:18;;;;;;;9.23;2.45;;;;;;;19.72;53.82;101974.97;;;;-55
2021/11/19 11:39:18;;;;;;;2.51;2.16;;;;;;;19.71;53.74;101975.66;;;;-54
2021/11/19 11:42:18;;;;;;;2.71;2.27;;;;;;;19.70;53.74;101975.05;;;;-56
2021/11/19 11:45:18;;;;;;;2.65;2.25;;;;;;;19.71;53.68;101974.11;;;;-54
2021/11/19 11:48:18;;;;;;;3.52;2.30;;;;;;;19.71;53.66;101966.30;;;;-56
2021/11/19 11:51:18;;;;;;;2.42;2.02;;;;;;;19.71;53.66;101963.80;;;;-55
2021/11/19 11:54:18;;;;;;;2.51;2.19;;;;;;;19.72;53.69;101960.66;;;;-54
2021/11/19 11:57:18;;;;;;;2.43;2.23;;;;;;;19.74;53.63;101963.32;;;;-54
2021/11/19 12:00:18;;;;;;;2.49;2.09;;;;;;;19.74;53.63;101958.52;;;;-54
2021/11/19 12:03:18;;;;;;;2.74;2.21;;;;;;;19.76;53.68;101959.31;;;;-50
2021/11/19 12:06:18;;;;;;;2.69;2.35;;;;;;;19.76;53.66;101960.78;;;;-50
2021/11/19 12:09:18;;;;;;;2.20;1.99;;;;;;;19.78;53.64;101963.36;;;;-56
2021/11/19 12:12:18;;;;;;;2.47;2.25;;;;;;;19.79;53.65;101957.59;;;;-56
2021/11/19 12:15:18;;;;;;;3.27;2.12;;;;;;;19.80;53.59;101957.00;;;;-56
2021/11/19 12:18:18;;;;;;;2.38;2.01;;;;;;;19.82;53.62;101959.54;;;;-55
2021/11/19 12:21:18;;;;;;;2.43;2.21;;;;;;;19.82;53.61;101958.20;;;;-56
2021/11/19 12:24:18;;;;;;;2.22;1.99;;;;;;;19.85;53.62;101956.48;;;;-57
2021/11/19 12:27:19;;;;;;;3.03;2.13;;;;;;;19.86;53.54;101954.94;;;;-56
2021/11/19 12:30:18;;;;;;;2.37;2.09;;;;;;;19.87;53.58;101948.08;;;;-56
2021/11/19 12:33:18;;;;;;;2.30;2.10;;;;;;;19.88;53.60;101944.38;;;;-57
2021/11/19 12:36:18;;;;;;;2.30;2.10;;;;;;;19.90;53.55;101948.02;;;;-49
2021/11/19 12:39:18;;;;;;;2.35;2.09;;;;;;;19.91;53.59;101943.14;;;;-49
2021/11/19 12:42:18;;;;;;;2.43;2.10;;;;;;;19.92;53.54;101942.78;;;;-55
2021/11/19 12:45:18;;;;;;;2.43;2.19;;;;;;;19.94;53.54;101937.19;;;;-56
2021/11/19 12:48:18;;;;;;;2.49;1.89;;;;;;;19.94;53.54;101930.15;;;;-49
2021/11/19 12:52:18;;;;;;;2.10;1.90;;;;;;;19.96;53.52;101922.52;;;;-49
2021/11/19 12:55:18;;;;;;;2.34;2.10;;;;;;;19.96;53.52;101919.84;;;;-50
2021/11/19 12:58:18;;;;;;;2.68;1.95;;;;;;;19.97;53.51;101913.62;;;;-50
2021/11/19 13:01:18;;;;;;;2.76;2.08;;;;;;;19.97;53.53;101908.73;;;;-50
2021/11/19 13:04:18;;;;;;;2.11;1.91;;;;;;;19.98;53.51;101908.66;;;;-49
2021/11/19 13:07:18;;;;;;;2.87;2.07;;;;;;;19.98;53.51;101906.83;;;;-55
2021/11/19 13:10:18;;;;;;;2.19;1.99;;;;;;;19.99;53.51;101905.29;;;;-56
2021/11/19 13:13:18;;;;;;;3.03;2.05;;;;;;;20.04;53.59;101909.88;;;;-58
2021/11/19 13:16:18;;;;;;;3.03;1.94;;;;;;;20.06;54.00;101906.52;;;;-55
2021/11/19 13:19:18;;;;;;;2.91;2.10;;;;;;;20.08;54.08;101903.00;;;;-55
2021/11/19 13:22:18;;;;;;;2.57;2.00;;;;;;;20.12;54.05;101898.78;;;;-56
2021/11/19 13:25:18;;;;;;;2.77;2.13;;;;;;;20.15;54.08;101898.81;;;;-52
2021/11/19 13:28:18;;;;;;;2.62;2.00;;;;;;;20.20;54.03;101899.17;;;;-49
2021/11/19 13:31:18;;;;;;;2.18;2.02;;;;;;;20.24;54.04;101898.78;;;;-48
2021/11/19 13:34:18;;;;;;;2.25;2.02;;;;;;;20.26;53.71;101893.72;;;;-45
2021/11/19 13:37:18;;;;;;;2.26;2.06;;;;;;;20.28;53.60;101890.02;;;;-46
2021/11/19 13:40:18;;;;;;;2.24;2.04;;;;;;;20.31;53.98;101888.86;;;;-48
2021/11/19 13:43:20;;;;;;;2.55;1.90;;;;;;;20.33;53.71;101888.27;;;;-46
2021/11/19 13:46:18;;;;;;;2.27;2.07;;;;;;;20.35;53.68;101885.05;;;;-49
2021/11/19 13:49:18;;;;;;;2.19;1.95;;;;;;;20.36;54.17;101882.66;;;;-54
2021/11/19 13:52:18;;;;;;;2.59;1.98;;;;;;;20.38;54.37;101881.81;;;;-54
2021/11/19 13:55:18;;;;;;;3.04;1.99;;;;;;;20.41;54.31;101885.70;;;;-50
2021/11/19 13:58:18;;;;;;;2.09;1.89;;;;;;;20.42;53.93;101878.78;;;;-53
2021/11/19 14:01:18;;;;;;;2.21;1.84;;;;;;;20.44;54.19;101876.68;;;;-56
2021/11/19 14:04:21;;;;;;;1.99;1.80;;;;;;;20.45;54.12;101874.81;;;;-49
2021/11/19 14:07:18;;;;;;;3.01;2.10;;;;;;;20.40;53.39;101874.78;;;;-54
2021/11/19 14:10:18;;;;;;;7.36;2.52;;;;;;;20.39;52.66;101876.62;;;;-59
2021/11/19 14:13:18;;;;;;;7.44;2.45;;;;;;;20.42;53.10;101876.83;;;;-59
2021/11/19 14:16:18;;;;;;;5.05;2.27;;;;;;;20.42;53.38;101877.97;;;;-51
2021/11/19 14:19:19;;;;;;;3.53;2.29;;;;;;;20.42;53.47;101876.87;;;;-51
2021/11/19 14:22:18;;;;;;;3.17;2.21;;;;;;;20.44;53.50;101876.48;;;;-56
2021/11/19 14:25:18;;;;;;;2.58;2.09;;;;;;;20.43;53.47;101872.31;;;;-59
2021/11/19 14:28:18;;;;;;;2.59;2.03;;;;;;;20.45;53.58;101870.74;;;;-50
2021/11/19 14:31:18;;;;;;;3.43;2.34;;;;;;;20.43;53.22;101873.30;;;;-51
2021/11/19 14:34:18;;;;;;;4.42;2.29;;;;;;;20.42;53.10;101875.16;;;;-52
2021/11/19 14:37:18;;;;;;;5.11;2.24;;;;;;;20.41;53.00;101873.73;;;;-50
2021/11/19 14:40:18;;;;;;;2.42;2.15;;;;;;;20.41;52.96;101873.17;;;;-50
2021/11/19 14:43:18;;;;;;;2.69;2.11;;;;;;;20.41;53.00;101873.73;;;;-50
2021/11/19 14:46:18;;;;;;;3.81;2.37;;;;;;;20.40;52.91;101871.85;;;;-50
2021/11/19 14:49:18;;;;;;;6.44;2.65;;;;;;;20.39;51.94;101875.31;;;;-50
2021/11/19 14:52:18;;;;;;;5.24;2.31;;;;;;;20.40;52.48;101876.49;;;;-50
2021/11/19 14:55:18;;;;;;;2.89;2.19;;;;;;;20.42;52.76;101867.55;;;;-51
2021/11/19 14:58:18;;;;;;;7.86;2.45;;;;;;;20.43;52.92;101869.80;;;;-51
2021/11/19 15:01:19;;;;;;;8.21;2.57;;;;;;;20.42;52.49;101868.28;;;;-51
2021/11/19 15:04:19;;;;;;;4.25;2.61;;;;;;;20.42;52.16;101870.35;;;;-51
2021/11/19 15:07:18;;;;;;;4.79;2.57;;;;;;;20.42;52.01;101866.98;;;;-51
2021/11/19 15:10:18;;;;;;;4.27;2.49;;;;;;;20.43;52.00;101873.45;;;;-51
2021/11/19 15:13:18;;;;;;;4.84;2.76;;;;;;;20.43;51.94;101875.33;;;;-51
2021/11/19 15:16:18;;;;;;;5.96;2.43;;;;;;;20.46;52.59;101880.87;;;;-52
2021/11/19 15:19:18;;;;;;;5.65;2.52;;;;;;;20.49;52.79;101881.27;;;;-53
2021/11/19 15:22:18;;;;;;;5.01;2.51;;;;;;;20.51;52.78;101881.55;;;;-52
2021/11/19 15:25:18;;;;;;;7.42;2.55;;;;;;;20.53;52.94;101882.91;;;;-50
2021/11/19 15:28:18;;;;;;;4.47;2.58;;;;;;;20.56;53.11;101878.98;;;;-49
2021/11/19 15:31:18;;;;;;;3.74;2.35;;;;;;;20.56;52.97;101878.98;;;;-50
2021/11/19 15:34:18;;;;;;;2.61;2.25;;;;;;;20.58;53.10;101882.65;;;;-59
2021/11/19 15:37:18;;;;;;;3.31;2.55;;;;;;;20.59;53.12;101881.55;;;;-57
2021/11/19 15:40:18;;;;;;;2.63;2.33;;;;;;;20.59;53.15;101875.85;;;;-57
2021/11/19 15:43:18;;;;;;;3.29;2.25;;;;;;;20.62;53.24;101875.02;;;;-53
2021/11/19 15:46:18;;;;;;;4.07;2.36;;;;;;;20.62;53.35;101870.61;;;;-51
2021/11/19 15:49:18;;;;;;;3.21;2.48;;;;;;;20.64;52.97;101874.56;;;;-51
2021/11/19 15:52:18;;;;;;;4.09;2.43;;;;;;;20.65;53.21;101872.17;;;;-51
2021/11/19 15:55:18;;;;;;;3.50;2.44;;;;;;;20.66;53.34;101875.52;;;;-53
2021/11/19 15:58:18;;;;;;;3.79;2.31;;;;;;;20.67;53.46;101874.49;;;;-53
2021/11/19 16:01:18;;;;;;;4.42;2.42;;;;;;;20.67;53.49;101868.47;;;;-56
2021/11/19 16:04:18;;;;;;;4.21;2.36;;;;;;;20.68;53.46;101869.62;;;;-54
2021/11/19 16:08:18;;;;;;;3.49;2.09;;;;;;;20.72;53.39;101867.43;;;;-54
2021/11/19 16:11:18;;;;;;;3.19;2.34;;;;;;;20.74;53.36;101867.07;;;;-55
2021/11/19 16:14:18;;;;;;;2.56;2.11;;;;;;;20.76;53.44;101870.30;;;;-54
2021/11/19 16:17:18;;;;;;;2.93;2.15;;;;;;;20.77;53.21;101865.38;;;;-58
2021/11/19 16:20:18;;;;;;;3.28;2.25;;;;;;;20.78;53.23;101865.87;;;;-56
2021/11/19 16:23:18;;;;;;;3.00;2.36;;;;;;;20.81;53.29;101865.52;;;;-54
2021/11/19 16:26:18;;;;;;;2.92;2.29;;;;;;;20.83;53.29;101868.66;;;;-57
2021/11/19 16:29:19;;;;;;;2.67;2.27;;;;;;;20.85;53.21;101865.13;;;;-58
2021/11/19 16:32:18;;;;;;;2.69;2.21;;;;;;;20.88;53.37;101866.84;;;;-54
2021/11/19 16:35:18;;;;;;;4.49;2.56;;;;;;;20.85;52.72;101872.21;;;;-53
2021/11/19 16:38:18;;;;;;;4.61;3.23;;;;;;;20.82;52.29;101873.05;;;;-57
2021/11/19 16:41:18;;;;;;;4.41;2.81;;;;;;;20.85;52.48;101869.92;;;;-57
2021/11/19 16:44:18;;;;;;;3.24;2.54;;;;;;;20.87;52.75;101872.99;;;;-54
2021/11/19 16:47:18;;;;;;;4.03;2.50;;;;;;;20.90;52.99;101866.64;;;;-57
2021/11/19 16:50:18;;;;;;;3.49;2.47;;;;;;;20.93;52.99;101863.35;;;;-51
2021/11/19 16:53:18;;;;;;;5.95;2.65;;;;;;;20.92;52.98;101863.09;;;;-54
2021/11/19 16:56:18;;;;;;;6.36;2.95;;;;;;;20.94;52.98;101864.17;;;;-53
2021/11/19 16:59:18;;;;;;;5.09;2.77;;;;;;;20.95;53.02;101864.94;;;;-52
2021/11/19 17:02:18;;;;;;;3.32;2.40;;;;;;;20.97;53.01;101866.54;;;;-52